createdAt,value
2023-04-04T00:00:58.099Z,2.13
2023-04-04T00:03:25.183Z,2.30
2023-04-04T00:05:52.296Z,2.07
2023-04-04T00:08:19.245Z,2.20
2023-04-04T00:11:13.883Z,2.10
2023-04-04T00:13:44.187Z,2.30
2023-04-04T00:16:21.691Z,2.33
2023-04-04T00:18:51.627Z,2.30
2023-04-04T00:21:18.669Z,2.30
2023-04-04T00:23:45.662Z,2.07
2023-04-04T00:26:12.637Z,2.30
2023-04-04T00:28:42.748Z,3.03
2023-04-04T00:33:53.602Z,2.67
2023-04-04T00:36:20.566Z,2.60
2023-04-04T00:38:58.197Z,2.70
2023-04-04T00:41:28.278Z,2.50
2023-04-04T00:44:05.182Z,2.53
2023-04-04T00:46:33.105Z,2.70
2023-04-04T00:49:03.036Z,2.40
2023-04-04T00:51:40.976Z,3.00
2023-04-04T00:54:07.979Z,2.67
2023-04-04T00:56:39.685Z,2.50
2023-04-04T00:59:07.784Z,2.73
2023-04-04T01:01:36.446Z,2.67
2023-04-04T01:04:05.765Z,2.37
2023-04-04T01:06:33.594Z,2.60
2023-04-04T01:09:01.894Z,2.80
2023-04-04T01:12:14.263Z,3.00
2023-04-04T01:14:41.532Z,2.80
2023-04-04T01:17:18.128Z,2.53
2023-04-04T01:20:26.342Z,2.13
2023-04-04T01:22:55.346Z,2.30
2023-04-04T01:25:35.977Z,2.27
2023-04-04T01:28:03.149Z,2.70
2023-04-04T01:30:34.752Z,2.57
2023-04-04T01:33:18.118Z,2.83
2023-04-04T01:36:05.691Z,2.63
2023-04-04T01:39:03.951Z,2.27
2023-04-04T01:41:39.402Z,3.00
2023-04-04T01:44:06.664Z,2.50
2023-04-04T01:46:33.898Z,2.57
2023-04-04T01:49:09.694Z,2.67
2023-04-04T01:51:39.153Z,2.87
2023-04-04T01:54:06.181Z,2.40
2023-04-04T01:56:33.636Z,2.53
2023-04-04T01:59:01.536Z,2.43
2023-04-04T02:01:28.605Z,2.57
2023-04-04T02:04:04.820Z,2.83
2023-04-04T02:06:48.256Z,2.23
2023-04-04T02:09:27.311Z,2.57
2023-04-04T02:11:54.703Z,2.70
2023-04-04T02:14:22.020Z,2.70
2023-04-04T02:16:48.964Z,2.47
2023-04-04T02:19:21.581Z,2.73
2023-04-04T02:21:54.478Z,2.80
2023-04-04T02:24:28.566Z,2.60
2023-04-04T02:26:55.553Z,2.80
2023-04-04T02:29:23.422Z,3.10
2023-04-04T02:31:50.519Z,2.60
2023-04-04T02:34:17.547Z,2.70
2023-04-04T02:36:44.842Z,3.10
2023-04-04T02:39:40.767Z,3.00
2023-04-04T02:42:07.702Z,3.53
2023-04-04T02:44:44.660Z,3.57
2023-04-04T02:47:12.344Z,3.70
2023-04-04T02:49:39.425Z,3.60
2023-04-04T02:52:08.263Z,3.50
2023-04-04T02:54:37.679Z,3.17
2023-04-04T02:57:08.216Z,2.83
2023-04-04T02:59:46.494Z,3.30
2023-04-04T03:02:37.272Z,3.00
2023-04-04T03:05:04.966Z,3.10
2023-04-04T03:07:36.233Z,2.80
2023-04-04T03:10:06.802Z,3.03
2023-04-04T03:12:33.748Z,2.97
2023-04-04T03:15:00.645Z,2.93
2023-04-04T03:17:29.279Z,2.60
2023-04-04T03:19:56.200Z,2.83
2023-04-04T03:22:23.252Z,3.33
2023-04-04T03:24:52.076Z,2.90
2023-04-04T03:27:19.051Z,2.70
2023-04-04T03:29:46.079Z,3.00
2023-04-04T03:32:13.160Z,3.57
2023-04-04T03:34:40.239Z,2.80
2023-04-04T03:37:10.251Z,2.40
2023-04-04T03:39:37.237Z,2.90
2023-04-04T03:42:04.754Z,2.33
2023-04-04T03:44:31.704Z,2.80
2023-04-04T03:47:01.694Z,1.90
2023-04-04T03:49:28.943Z,2.77
2023-04-04T03:52:00.033Z,3.33
2023-04-04T03:54:29.473Z,3.33
2023-04-04T03:57:03.823Z,3.40
2023-04-04T03:59:42.247Z,3.20
2023-04-04T04:02:12.056Z,3.37
2023-04-04T04:04:47.782Z,3.50
2023-04-04T04:07:46.877Z,3.10
2023-04-04T04:10:22.107Z,3.30
2023-04-04T04:12:52.301Z,3.60
2023-04-04T04:15:19.493Z,3.20
2023-04-04T04:17:49.586Z,3.13
2023-04-04T04:20:28.189Z,3.60
2023-04-04T04:22:55.349Z,3.40
2023-04-04T04:25:22.739Z,3.77
2023-04-04T04:27:49.788Z,3.40
2023-04-04T04:30:16.971Z,3.40
2023-04-04T04:32:43.940Z,3.47
2023-04-04T04:35:11.085Z,3.70
2023-04-04T04:37:38.434Z,3.40
2023-04-04T04:40:06.558Z,3.73
2023-04-04T04:42:33.557Z,3.30
2023-04-04T04:45:00.617Z,3.53
2023-04-04T04:47:27.719Z,3.40
2023-04-04T04:49:54.745Z,3.67
2023-04-04T04:52:21.757Z,3.10
2023-04-04T04:54:51.823Z,3.20
2023-04-04T04:57:18.897Z,3.60
2023-04-04T04:59:46.019Z,4.00
2023-04-04T05:02:13.020Z,4.10
2023-04-04T05:04:41.267Z,4.33
2023-04-04T05:07:30.647Z,4.60
2023-04-04T05:09:57.691Z,3.90
2023-04-04T05:12:24.624Z,4.10
2023-04-04T05:14:51.558Z,3.97
2023-04-04T05:17:22.978Z,6.97
2023-04-04T05:19:50.147Z,6.40
2023-04-04T05:22:17.077Z,5.90
2023-04-04T05:24:43.996Z,6.70
2023-04-04T05:27:11.238Z,6.10
2023-04-04T05:29:38.188Z,4.77
2023-04-04T05:32:05.473Z,4.47
2023-04-04T05:34:35.514Z,4.50
2023-04-04T05:37:02.447Z,4.33
2023-04-04T05:39:29.512Z,4.87
2023-04-04T05:41:56.431Z,4.70
2023-04-04T05:44:33.271Z,4.20
2023-04-04T05:47:00.421Z,4.90
2023-04-04T05:49:28.464Z,4.47
2023-04-04T05:51:58.286Z,4.93
2023-04-04T05:54:25.265Z,4.47
2023-04-04T05:56:52.326Z,4.93
2023-04-04T05:59:19.261Z,4.27
2023-04-04T06:01:46.379Z,4.10
2023-04-04T06:04:15.566Z,4.17
2023-04-04T06:06:42.666Z,4.93
2023-04-04T06:09:09.607Z,4.70
2023-04-04T06:11:46.209Z,4.17
2023-04-04T06:14:14.725Z,4.70
2023-04-04T06:16:42.273Z,4.70
2023-04-04T06:19:09.361Z,4.20
2023-04-04T06:21:36.668Z,4.60
2023-04-04T06:24:03.776Z,3.97
2023-04-04T06:26:30.914Z,4.03
2023-04-04T06:28:57.836Z,4.43
2023-04-04T06:31:24.890Z,3.80
2023-04-04T06:33:51.882Z,4.33
2023-04-04T06:36:18.804Z,4.27
2023-04-04T06:38:45.782Z,4.20
2023-04-04T06:41:12.836Z,4.37
2023-04-04T06:43:39.879Z,4.30
2023-04-04T06:46:07.128Z,4.50
2023-04-04T06:48:34.185Z,4.77
2023-04-04T06:51:01.382Z,4.17
2023-04-04T06:53:28.460Z,3.93
2023-04-04T06:55:55.582Z,4.10
2023-04-04T06:58:22.540Z,4.40
2023-04-04T07:00:49.653Z,4.07
2023-04-04T07:03:33.030Z,4.10
2023-04-04T07:06:04.405Z,4.03
2023-04-04T07:08:36.957Z,4.67
2023-04-04T07:11:06.304Z,3.53
2023-04-04T07:13:39.869Z,4.47
2023-04-04T07:16:07.187Z,3.63
2023-04-04T07:18:34.201Z,3.57
2023-04-04T07:21:01.157Z,3.40
2023-04-04T07:23:28.243Z,3.50
2023-04-04T07:25:55.263Z,3.37
2023-04-04T07:28:22.761Z,3.70
2023-04-04T07:30:49.727Z,3.80
2023-04-04T07:33:16.757Z,3.80
2023-04-04T07:35:43.734Z,4.00
2023-04-04T07:38:26.737Z,4.20
2023-04-04T07:40:56.988Z,3.70
2023-04-04T07:43:24.076Z,3.63
2023-04-04T07:46:02.158Z,3.23
2023-04-04T07:48:29.234Z,3.93
2023-04-04T07:50:56.483Z,3.53
2023-04-04T07:53:23.552Z,3.53
2023-04-04T07:55:50.640Z,3.07
2023-04-04T07:58:17.695Z,3.63
2023-04-04T08:00:44.668Z,3.57
2023-04-04T08:03:12.405Z,3.87
2023-04-04T08:05:40.382Z,3.23
2023-04-04T08:08:07.453Z,3.40
2023-04-04T08:10:34.408Z,3.17
2023-04-04T08:13:01.481Z,2.70
2023-04-04T08:15:28.870Z,3.20
2023-04-04T08:17:56.855Z,3.30
2023-04-04T08:20:24.069Z,3.07
2023-04-04T08:22:51.063Z,2.83
2023-04-04T08:25:18.554Z,2.77
2023-04-04T08:27:45.857Z,2.50
2023-04-04T08:30:17.118Z,2.80
2023-04-04T08:32:46.019Z,3.07
2023-04-04T08:35:13.329Z,2.27
2023-04-04T08:37:47.050Z,2.63
2023-04-04T08:40:14.847Z,2.23
2023-04-04T08:42:46.190Z,2.10
2023-04-04T08:45:17.920Z,2.43
2023-04-04T08:47:46.627Z,2.20
2023-04-04T08:50:13.753Z,2.13
2023-04-04T08:52:41.779Z,2.30
2023-04-04T08:55:10.057Z,2.20
2023-04-04T08:57:37.905Z,2.57
2023-04-04T09:00:07.294Z,1.97
2023-04-04T09:02:53.457Z,2.17
2023-04-04T09:05:25.652Z,2.53
2023-04-04T09:07:56.973Z,2.40
2023-04-04T09:10:27.958Z,2.47
2023-04-04T09:13:05.202Z,2.30
2023-04-04T09:15:47.849Z,2.47
2023-04-04T09:18:15.618Z,2.70
2023-04-04T09:20:47.134Z,2.40
2023-04-04T09:23:21.572Z,2.40
2023-04-04T09:26:03.941Z,2.60
2023-04-04T09:28:33.425Z,2.20
2023-04-04T09:31:04.729Z,2.10
2023-04-04T09:33:35.814Z,2.23
2023-04-04T09:36:10.111Z,2.37
2023-04-04T09:38:45.705Z,2.23
2023-04-04T09:41:16.470Z,2.20
2023-04-04T09:43:45.778Z,2.20
2023-04-04T09:46:12.870Z,2.60
2023-04-04T09:48:40.348Z,2.20
2023-04-04T09:51:12.361Z,2.37
2023-04-04T09:53:42.126Z,2.23
2023-04-04T09:56:09.520Z,2.33
2023-04-04T09:58:44.297Z,3.20
2023-04-04T10:01:18.458Z,2.77
2023-04-04T10:03:54.193Z,2.50
2023-04-04T10:06:22.553Z,2.80
2023-04-04T10:08:50.405Z,2.93
2023-04-04T10:11:36.000Z,2.57
2023-04-04T10:14:06.853Z,2.80
2023-04-04T10:16:38.204Z,2.80
2023-04-04T10:19:08.898Z,2.80
2023-04-04T10:21:36.703Z,2.43
2023-04-04T10:24:09.401Z,2.70
2023-04-04T10:26:37.086Z,2.70
2023-04-04T10:29:06.000Z,2.27
2023-04-04T10:31:40.930Z,2.90
2023-04-04T10:34:21.036Z,3.40
2023-04-04T10:36:54.996Z,2.70
2023-04-04T10:39:37.815Z,2.57
2023-04-04T10:42:07.829Z,2.60
2023-04-04T10:44:39.887Z,2.57
2023-04-04T10:47:23.530Z,2.53
2023-04-04T10:49:51.755Z,2.63
2023-04-04T10:52:24.716Z,2.33
2023-04-04T10:54:55.120Z,2.37
2023-04-04T10:57:23.825Z,2.20
2023-04-04T11:00:18.002Z,2.63
2023-04-04T11:03:00.399Z,2.50
2023-04-04T11:05:37.602Z,2.40
2023-04-04T11:08:09.060Z,2.20
2023-04-04T11:10:42.508Z,2.67
2023-04-04T11:13:16.371Z,2.50
2023-04-04T11:16:07.623Z,2.50
2023-04-04T11:18:43.856Z,2.73
2023-04-04T11:21:20.472Z,2.40
2023-04-04T11:24:14.745Z,2.87
2023-04-04T11:26:46.151Z,2.57
2023-04-04T11:29:22.675Z,2.73
2023-04-04T11:31:50.974Z,3.00
2023-04-04T11:34:32.603Z,2.30
2023-04-04T11:37:03.283Z,2.60
2023-04-04T11:39:31.713Z,2.60
2023-04-04T11:42:14.143Z,3.00
2023-04-04T11:44:51.302Z,2.60
2023-04-04T11:47:24.091Z,2.50
2023-04-04T11:49:53.765Z,2.37
2023-04-04T11:52:23.741Z,3.00
2023-04-04T11:54:50.862Z,2.80
2023-04-04T11:57:19.777Z,2.40
2023-04-04T11:59:50.571Z,3.07
2023-04-04T12:02:23.735Z,2.83
2023-04-04T12:04:52.251Z,3.13
2023-04-04T12:07:19.734Z,2.90
2023-04-04T12:09:48.077Z,3.07
2023-04-04T12:12:19.826Z,2.83
2023-04-04T12:17:20.527Z,2.70
2023-04-04T12:19:47.671Z,2.80
2023-04-04T12:22:15.015Z,2.73
2023-04-04T12:24:42.151Z,3.10
2023-04-04T12:27:09.214Z,2.93
2023-04-04T12:29:37.635Z,2.90
2023-04-04T12:32:06.385Z,2.70
2023-04-04T12:34:36.318Z,3.20
2023-04-04T12:37:04.171Z,3.03
2023-04-04T12:39:31.990Z,3.50
2023-04-04T12:42:04.004Z,3.40
2023-04-04T12:44:41.979Z,3.30
2023-04-04T12:47:16.088Z,3.10
2023-04-04T12:49:48.728Z,3.60
2023-04-04T12:52:21.763Z,3.23
2023-04-04T12:55:04.815Z,3.10
2023-04-04T12:57:36.115Z,3.03
2023-04-04T13:00:06.325Z,3.23
2023-04-04T13:02:36.516Z,3.30
2023-04-04T13:05:04.340Z,3.47
2023-04-04T13:07:43.096Z,3.10
2023-04-04T13:10:15.994Z,3.30
2023-04-04T13:12:58.826Z,3.40
2023-04-04T13:15:51.078Z,3.80
2023-04-04T13:18:24.783Z,3.70
2023-04-04T13:20:53.933Z,3.40
2023-04-04T13:23:21.864Z,3.53
2023-04-04T13:25:49.049Z,3.27
2023-04-04T13:28:16.460Z,3.90
2023-04-04T13:30:48.715Z,3.67
2023-04-04T13:33:17.301Z,3.47
2023-04-04T13:35:45.514Z,3.20
2023-04-04T13:38:12.973Z,2.90
2023-04-04T13:40:40.070Z,3.53
2023-04-04T13:43:09.053Z,4.20
2023-04-04T13:45:36.318Z,3.17
2023-04-04T13:48:04.321Z,3.63
2023-04-04T13:50:33.002Z,3.40
2023-04-04T13:53:00.572Z,3.70
2023-04-04T13:55:28.206Z,3.80
2023-04-04T13:57:55.237Z,3.80
2023-04-04T14:00:25.097Z,3.37
2023-04-04T14:02:54.174Z,3.60
2023-04-04T14:05:22.921Z,4.00
2023-04-04T14:07:50.308Z,3.67
2023-04-04T14:10:17.324Z,3.23
2023-04-04T14:12:44.330Z,3.97
2023-04-04T14:15:12.325Z,3.37
2023-04-04T14:17:39.543Z,4.30
2023-04-04T14:20:07.956Z,3.50
2023-04-04T14:22:35.477Z,3.80
2023-04-04T14:25:03.076Z,3.43
2023-04-04T14:27:29.993Z,3.53
2023-04-04T14:29:56.937Z,3.60
2023-04-04T14:32:24.867Z,3.57
2023-04-04T14:34:52.119Z,3.60
2023-04-04T14:37:19.085Z,3.57
2023-04-04T14:39:46.021Z,3.93
2023-04-04T14:42:12.934Z,3.47
2023-04-04T14:44:42.050Z,3.93
2023-04-04T14:47:09.657Z,3.50
2023-04-04T14:49:36.806Z,3.73
2023-04-04T14:52:04.276Z,3.70
2023-04-04T14:54:31.263Z,3.70
2023-04-04T14:56:59.385Z,3.30
2023-04-04T14:59:26.365Z,3.80
2023-04-04T15:01:53.310Z,3.80
2023-04-04T15:04:20.379Z,3.83
2023-04-04T15:06:47.313Z,3.90
2023-04-04T15:09:14.915Z,3.90
2023-04-04T15:11:42.324Z,3.60
2023-04-04T15:14:09.429Z,3.73
2023-04-04T15:16:36.597Z,3.40
2023-04-04T15:19:03.646Z,3.90
2023-04-04T15:21:31.727Z,3.47
2023-04-04T15:23:58.792Z,3.83
2023-04-04T15:26:26.070Z,3.90
2023-04-04T15:28:53.099Z,3.53
2023-04-04T15:31:21.032Z,3.23
2023-04-04T15:33:48.441Z,3.93
2023-04-04T15:36:15.507Z,3.80
2023-04-04T15:38:42.479Z,3.40
2023-04-04T15:41:10.372Z,4.07
2023-04-04T15:43:37.731Z,3.90
2023-04-04T15:46:05.486Z,4.20
2023-04-04T15:48:34.277Z,3.67
2023-04-04T15:51:04.898Z,3.77
2023-04-04T15:53:33.286Z,3.20
2023-04-04T15:56:01.981Z,3.93
2023-04-04T15:58:28.962Z,3.80
2023-04-04T16:00:56.065Z,3.70
2023-04-04T16:03:24.613Z,4.00
2023-04-04T16:05:51.733Z,4.23
2023-04-04T16:08:18.664Z,3.70
2023-04-04T16:10:45.577Z,4.00
2023-04-04T16:13:14.115Z,3.60
2023-04-04T16:15:41.275Z,3.30
2023-04-04T16:18:08.781Z,3.90
2023-04-04T16:20:36.269Z,3.90
2023-04-04T16:23:03.282Z,3.73
2023-04-04T16:25:30.244Z,3.80
2023-04-04T16:27:57.304Z,4.20
2023-04-04T16:30:24.274Z,4.30
2023-04-04T16:32:52.141Z,4.17
2023-04-04T16:35:19.152Z,4.30
2023-04-04T16:37:46.065Z,4.50
2023-04-04T16:40:14.870Z,4.10
2023-04-04T16:42:42.475Z,4.83
2023-04-04T16:45:10.498Z,4.30
2023-04-04T16:47:37.596Z,4.23
2023-04-04T16:50:07.085Z,4.73
2023-04-04T16:52:34.075Z,3.90
2023-04-04T16:55:01.067Z,4.37
2023-04-04T16:57:28.062Z,4.07
2023-04-04T16:59:55.061Z,4.23
2023-04-04T17:02:22.081Z,4.53
2023-04-04T17:04:49.186Z,4.10
2023-04-04T17:07:16.325Z,3.87
2023-04-04T17:09:43.374Z,4.20
2023-04-04T17:12:10.318Z,4.40
2023-04-04T17:14:37.599Z,4.30
2023-04-04T17:17:05.566Z,4.60
2023-04-04T17:19:34.846Z,4.60
2023-04-04T17:22:02.288Z,4.17
2023-04-04T17:24:29.241Z,5.07
2023-04-04T17:26:58.246Z,4.40
2023-04-04T17:29:27.350Z,4.50
2023-04-04T17:31:58.299Z,4.30
2023-04-04T17:34:26.297Z,4.03
2023-04-04T17:36:53.857Z,4.23
2023-04-04T17:39:21.486Z,4.10
2023-04-04T17:41:48.775Z,4.20
2023-04-04T17:44:17.308Z,4.13
2023-04-04T17:46:45.165Z,4.20
2023-04-04T17:49:12.778Z,4.30
2023-04-04T17:51:39.695Z,4.57
2023-04-04T17:54:06.855Z,4.37
2023-04-04T17:56:33.794Z,4.13
2023-04-04T17:59:00.885Z,4.10
2023-04-04T18:01:29.469Z,4.07
2023-04-04T18:03:57.644Z,4.10
2023-04-04T18:06:24.747Z,4.10
2023-04-04T18:08:51.819Z,4.57
2023-04-04T18:11:19.154Z,4.03
2023-04-04T18:13:46.261Z,4.80
2023-04-04T18:16:13.361Z,4.70
2023-04-04T18:18:40.690Z,4.03
2023-04-04T18:21:08.462Z,4.90
2023-04-04T18:23:35.782Z,4.03
2023-04-04T18:26:03.322Z,4.90
2023-04-04T18:28:30.537Z,5.13
2023-04-04T18:30:59.472Z,5.10
2023-04-04T18:33:27.233Z,4.67
2023-04-04T18:35:54.853Z,5.20
2023-04-04T18:38:21.938Z,4.97
2023-04-04T18:40:48.912Z,4.60
2023-04-04T18:43:15.997Z,12.23
2023-04-04T18:45:43.248Z,10.93
2023-04-04T18:48:12.515Z,9.37
2023-04-04T18:50:40.993Z,7.63
2023-04-04T18:53:08.555Z,6.80
2023-04-04T18:55:36.325Z,6.30
2023-04-04T18:58:03.254Z,7.33
2023-04-04T19:00:31.230Z,10.50
2023-04-04T19:02:58.311Z,11.07
2023-04-04T19:05:25.714Z,10.13
2023-04-04T19:07:54.520Z,7.63
2023-04-04T19:10:22.196Z,7.57
2023-04-04T19:12:49.188Z,6.73
2023-04-04T19:15:16.389Z,7.43
2023-04-04T19:17:43.409Z,7.83
2023-04-04T19:20:12.429Z,7.30
2023-04-04T19:22:39.452Z,9.37
2023-04-04T19:25:06.629Z,10.77
2023-04-04T19:27:33.614Z,12.50
2023-04-04T19:30:00.693Z,13.73
2023-04-04T19:32:28.498Z,13.93
2023-04-04T19:34:56.438Z,13.93
2023-04-04T19:37:24.487Z,11.87
2023-04-04T19:39:51.506Z,7.53
2023-04-04T19:42:27.090Z,7.10
2023-04-04T19:44:54.033Z,6.80
2023-04-04T19:47:21.764Z,7.17
2023-04-04T19:49:52.867Z,7.83
2023-04-04T19:52:24.137Z,7.00
2023-04-04T19:54:51.066Z,7.10
2023-04-04T19:57:33.483Z,6.97
2023-04-04T20:00:22.515Z,6.90
2023-04-04T20:03:00.005Z,6.77
2023-04-04T20:05:32.127Z,6.40
2023-04-04T20:08:00.951Z,7.53
2023-04-04T20:10:40.604Z,7.77
2023-04-04T20:13:08.610Z,8.57
2023-04-04T20:16:06.640Z,8.57
2023-04-04T20:18:35.587Z,8.10
2023-04-04T20:21:23.553Z,8.37
2023-04-04T20:23:53.328Z,7.90
2023-04-04T20:26:59.668Z,8.30
2023-04-04T20:29:32.351Z,8.73
2023-04-04T20:32:08.768Z,8.40
2023-04-04T20:34:46.703Z,8.37
2023-04-04T20:37:23.488Z,8.00
2023-04-04T20:39:58.801Z,8.00
2023-04-04T20:42:36.863Z,8.20
2023-04-04T20:45:09.689Z,8.53
2023-04-04T20:47:55.049Z,8.57
2023-04-04T20:50:35.424Z,8.50
2023-04-04T20:53:13.337Z,9.63
2023-04-04T20:58:09.478Z,8.90
2023-04-04T21:00:42.569Z,9.20
2023-04-04T21:03:34.760Z,8.50
2023-04-04T21:06:10.852Z,8.77
2023-04-04T21:08:49.568Z,9.70
2023-04-04T21:11:38.214Z,10.10
2023-04-04T21:14:28.251Z,10.47
2023-04-04T21:16:55.158Z,10.50
2023-04-04T21:19:23.522Z,10.10
2023-04-04T21:21:54.580Z,11.03
2023-04-04T21:24:21.544Z,11.10
2023-04-04T21:26:50.239Z,10.63
2023-04-04T21:29:24.434Z,10.60
2023-04-04T21:31:56.704Z,9.93
2023-04-04T21:34:36.317Z,10.33
2023-04-04T21:37:16.204Z,10.50
2023-04-04T21:39:45.087Z,10.40
2023-04-04T21:42:12.162Z,9.90
2023-04-04T21:44:39.225Z,9.70
2023-04-04T21:47:06.601Z,10.33
2023-04-04T21:49:33.565Z,9.23
2023-04-04T21:52:00.490Z,9.23
2023-04-04T21:54:27.431Z,9.33
2023-04-04T21:56:54.329Z,8.13
2023-04-04T21:59:21.673Z,10.03
2023-04-04T22:01:50.331Z,9.93
2023-04-04T22:04:17.285Z,10.27
2023-04-04T22:06:44.258Z,10.13
2023-04-04T22:09:11.827Z,10.07
2023-04-04T22:11:44.426Z,10.27
2023-04-04T22:14:17.296Z,9.47
2023-04-04T22:16:44.587Z,10.10
2023-04-04T22:19:12.007Z,9.50
2023-04-04T22:21:39.380Z,9.80
2023-04-04T22:24:10.085Z,9.60
2023-04-04T22:26:41.759Z,9.80
2023-04-04T22:29:08.692Z,11.30
2023-04-04T22:31:37.567Z,9.73
2023-04-04T22:34:06.247Z,10.60
2023-04-04T22:36:34.336Z,10.97
2023-04-04T22:39:04.048Z,9.47
2023-04-04T22:41:31.991Z,10.23
2023-04-04T22:44:07.183Z,10.40
2023-04-04T22:46:40.049Z,9.43
2023-04-04T22:49:08.859Z,9.30
2023-04-04T22:51:46.283Z,9.63
2023-04-04T22:54:17.031Z,9.60
2023-04-04T22:56:47.466Z,10.20
2023-04-04T22:59:17.351Z,10.07
2023-04-04T23:01:47.979Z,10.20
2023-04-04T23:04:15.013Z,10.80
2023-04-04T23:06:48.280Z,11.40
2023-04-04T23:09:18.242Z,11.53
2023-04-04T23:11:48.241Z,11.53
2023-04-04T23:14:19.510Z,13.57
2023-04-04T23:16:53.743Z,13.03
2023-04-04T23:19:23.220Z,11.70
2023-04-04T23:21:52.666Z,11.80
2023-04-04T23:24:19.547Z,11.67
2023-04-04T23:26:53.244Z,9.90
2023-04-04T23:29:23.921Z,10.80
2023-04-04T23:31:51.010Z,10.40
2023-04-04T23:34:18.210Z,10.80
2023-04-04T23:36:45.286Z,10.67
2023-04-04T23:39:12.339Z,10.27
2023-04-04T23:41:39.326Z,11.43
2023-04-04T23:44:06.290Z,12.40
2023-04-04T23:46:34.861Z,10.60
2023-04-04T23:49:02.062Z,11.53
2023-04-04T23:51:38.301Z,11.33
2023-04-04T23:54:10.433Z,10.40
2023-04-04T23:56:37.896Z,10.20
2023-04-04T23:59:06.020Z,10.87
